sensor_id;sensor_type;location;lat;lon;timestamp;pressure;altitude;pressure_sealevel;temperature;humidity
14089;BME280;7120;52.890;6.040;2023-04-09T00:01:16;102668.06;;;10.72;97.86
14089;BME280;7120;52.890;6.040;2023-04-09T00:03:41;102664.50;;;10.71;97.47
14089;BME280;7120;52.890;6.040;2023-04-09T00:06:07;102669.91;;;10.66;96.50
14089;BME280;7120;52.890;6.040;2023-04-09T00:08:32;102669.69;;;10.46;99.50
14089;BME280;7120;52.890;6.040;2023-04-09T00:10:58;102666.56;;;10.37;97.87
14089;BME280;7120;52.890;6.040;2023-04-09T00:13:25;102671.94;;;10.54;98.16
14089;BME280;7120;52.890;6.040;2023-04-09T00:15:50;102666.38;;;10.44;98.42
14089;BME280;7120;52.890;6.040;2023-04-09T00:18:15;102668.88;;;10.24;97.12
14089;BME280;7120;52.890;6.040;2023-04-09T00:20:42;102670.06;;;10.33;99.35
14089;BME280;7120;52.890;6.040;2023-04-09T00:23:07;102671.75;;;10.61;97.88
14089;BME280;7120;52.890;6.040;2023-04-09T00:25:33;102664.31;;;10.56;97.47
14089;BME280;7120;52.890;6.040;2023-04-09T00:27:59;102663.53;;;10.61;97.86
14089;BME280;7120;52.890;6.040;2023-04-09T00:30:24;102658.34;;;10.59;97.04
14089;BME280;7120;52.890;6.040;2023-04-09T00:32:49;102658.00;;;10.56;97.13
14089;BME280;7120;52.890;6.040;2023-04-09T00:35:15;102652.25;;;10.52;95.11
14089;BME280;7120;52.890;6.040;2023-04-09T00:37:42;102654.19;;;10.57;97.00
14089;BME280;7120;52.890;6.040;2023-04-09T00:40:07;102651.00;;;10.38;97.35
14089;BME280;7120;52.890;6.040;2023-04-09T00:42:34;102635.88;;;10.30;96.51
14089;BME280;7120;52.890;6.040;2023-04-09T00:45:00;102654.19;;;10.30;97.20
14089;BME280;7120;52.890;6.040;2023-04-09T00:47:26;102644.00;;;10.25;96.38
14089;BME280;7120;52.890;6.040;2023-04-09T00:49:53;102652.47;;;10.24;98.75
14089;BME280;7120;52.890;6.040;2023-04-09T00:52:19;102651.22;;;10.14;98.53
14089;BME280;7120;52.890;6.040;2023-04-09T00:54:45;102642.81;;;9.99;100.00
14089;BME280;7120;52.890;6.040;2023-04-09T00:57:11;102650.34;;;10.09;100.00
14089;BME280;7120;52.890;6.040;2023-04-09T00:59:37;102641.50;;;9.80;100.00
14089;BME280;7120;52.890;6.040;2023-04-09T01:02:02;102641.03;;;9.66;100.00
14089;BME280;7120;52.890;6.040;2023-04-09T01:04:28;102646.78;;;9.70;100.00
14089;BME280;7120;52.890;6.040;2023-04-09T01:07:16;102641.16;;;9.76;100.00
14089;BME280;7120;52.890;6.040;2023-04-09T01:09:59;102627.63;;;9.86;100.00
14089;BME280;7120;52.890;6.040;2023-04-09T01:15:14;102637.38;;;9.60;100.00
14089;BME280;7120;52.890;6.040;2023-04-09T01:20:38;102646.88;;;9.58;100.00
14089;BME280;7120;52.890;6.040;2023-04-09T01:23:28;102639.44;;;9.70;100.00
14089;BME280;7120;52.890;6.040;2023-04-09T01:28:32;102638.13;;;9.73;100.00
14089;BME280;7120;52.890;6.040;2023-04-09T01:31:00;102630.94;;;9.50;100.00
14089;BME280;7120;52.890;6.040;2023-04-09T01:33:28;102634.41;;;9.84;100.00
14089;BME280;7120;52.890;6.040;2023-04-09T01:35:55;102621.50;;;9.79;100.00
14089;BME280;7120;52.890;6.040;2023-04-09T01:38:21;102628.47;;;9.87;100.00
14089;BME280;7120;52.890;6.040;2023-04-09T01:40:48;102622.66;;;9.83;100.00
14089;BME280;7120;52.890;6.040;2023-04-09T01:43:15;102623.75;;;9.82;100.00
14089;BME280;7120;52.890;6.040;2023-04-09T01:45:43;102622.09;;;9.81;100.00
14089;BME280;7120;52.890;6.040;2023-04-09T01:48:11;102633.78;;;9.77;100.00
14089;BME280;7120;52.890;6.040;2023-04-09T01:50:37;102630.19;;;9.54;100.00
14089;BME280;7120;52.890;6.040;2023-04-09T01:53:03;102624.81;;;9.59;100.00
14089;BME280;7120;52.890;6.040;2023-04-09T01:55:29;102627.84;;;10.02;100.00
14089;BME280;7120;52.890;6.040;2023-04-09T01:57:54;102619.94;;;9.83;100.00
14089;BME280;7120;52.890;6.040;2023-04-09T02:00:20;102616.25;;;9.73;100.00
14089;BME280;7120;52.890;6.040;2023-04-09T02:02:56;102615.19;;;9.96;100.00
14089;BME280;7120;52.890;6.040;2023-04-09T02:05:24;102617.53;;;9.87;100.00
14089;BME280;7120;52.890;6.040;2023-04-09T02:07:55;102617.44;;;9.60;100.00
14089;BME280;7120;52.890;6.040;2023-04-09T02:10:23;102611.78;;;9.67;100.00
14089;BME280;7120;52.890;6.040;2023-04-09T02:12:51;102605.09;;;9.57;100.00
14089;BME280;7120;52.890;6.040;2023-04-09T02:15:18;102610.09;;;9.82;100.00
14089;BME280;7120;52.890;6.040;2023-04-09T02:17:44;102613.91;;;9.81;100.00
14089;BME280;7120;52.890;6.040;2023-04-09T02:20:10;102607.44;;;9.87;100.00
14089;BME280;7120;52.890;6.040;2023-04-09T02:22:36;102608.19;;;9.83;100.00
14089;BME280;7120;52.890;6.040;2023-04-09T02:25:02;102608.72;;;9.63;100.00
14089;BME280;7120;52.890;6.040;2023-04-09T02:27:28;102604.72;;;9.71;100.00
14089;BME280;7120;52.890;6.040;2023-04-09T02:29:53;102615.38;;;9.89;100.00
14089;BME280;7120;52.890;6.040;2023-04-09T02:32:18;102611.09;;;9.98;100.00
14089;BME280;7120;52.890;6.040;2023-04-09T02:34:44;102604.88;;;10.03;100.00
14089;BME280;7120;52.890;6.040;2023-04-09T02:37:10;102597.63;;;9.70;100.00
14089;BME280;7120;52.890;6.040;2023-04-09T02:39:35;102597.06;;;9.68;100.00
14089;BME280;7120;52.890;6.040;2023-04-09T02:42:00;102597.31;;;9.66;100.00
14089;BME280;7120;52.890;6.040;2023-04-09T02:44:26;102605.63;;;9.76;100.00
14089;BME280;7120;52.890;6.040;2023-04-09T02:46:51;102604.25;;;9.74;100.00
14089;BME280;7120;52.890;6.040;2023-04-09T02:49:17;102599.91;;;9.78;100.00
14089;BME280;7120;52.890;6.040;2023-04-09T02:51:42;102603.44;;;9.56;100.00
14089;BME280;7120;52.890;6.040;2023-04-09T02:54:07;102599.31;;;9.54;100.00
14089;BME280;7120;52.890;6.040;2023-04-09T02:56:33;102594.75;;;9.59;100.00
14089;BME280;7120;52.890;6.040;2023-04-09T02:58:58;102599.94;;;9.39;100.00
14089;BME280;7120;52.890;6.040;2023-04-09T03:01:23;102599.44;;;9.25;100.00
14089;BME280;7120;52.890;6.040;2023-04-09T03:03:49;102600.53;;;9.24;100.00
14089;BME280;7120;52.890;6.040;2023-04-09T03:06:15;102597.84;;;9.29;100.00
14089;BME280;7120;52.890;6.040;2023-04-09T03:08:40;102598.84;;;9.40;100.00
14089;BME280;7120;52.890;6.040;2023-04-09T03:11:05;102593.44;;;9.23;100.00
14089;BME280;7120;52.890;6.040;2023-04-09T03:13:31;102602.50;;;9.29;100.00
14089;BME280;7120;52.890;6.040;2023-04-09T03:15:56;102601.03;;;9.38;100.00
14089;BME280;7120;52.890;6.040;2023-04-09T03:18:21;102599.81;;;9.51;100.00
14089;BME280;7120;52.890;6.040;2023-04-09T03:20:47;102587.25;;;9.50;100.00
14089;BME280;7120;52.890;6.040;2023-04-09T03:23:12;102583.69;;;9.49;100.00
14089;BME280;7120;52.890;6.040;2023-04-09T03:25:37;102588.34;;;9.71;100.00
14089;BME280;7120;52.890;6.040;2023-04-09T03:28:03;102582.84;;;9.87;99.41
14089;BME280;7120;52.890;6.040;2023-04-09T03:30:29;102591.03;;;9.66;99.77
14089;BME280;7120;52.890;6.040;2023-04-09T03:32:55;102580.28;;;9.59;100.00
14089;BME280;7120;52.890;6.040;2023-04-09T03:35:20;102582.06;;;9.70;100.00
14089;BME280;7120;52.890;6.040;2023-04-09T03:37:46;102579.28;;;9.87;100.00
14089;BME280;7120;52.890;6.040;2023-04-09T03:40:12;102578.84;;;9.73;100.00
14089;BME280;7120;52.890;6.040;2023-04-09T03:42:37;102569.66;;;9.84;100.00
14089;BME280;7120;52.890;6.040;2023-04-09T03:45:03;102571.00;;;9.82;100.00
14089;BME280;7120;52.890;6.040;2023-04-09T03:47:29;102567.56;;;9.70;100.00
14089;BME280;7120;52.890;6.040;2023-04-09T03:49:54;102582.44;;;9.79;100.00
14089;BME280;7120;52.890;6.040;2023-04-09T03:52:20;102576.09;;;9.73;100.00
14089;BME280;7120;52.890;6.040;2023-04-09T03:54:45;102568.56;;;9.63;100.00
14089;BME280;7120;52.890;6.040;2023-04-09T03:57:11;102569.47;;;9.47;100.00
14089;BME280;7120;52.890;6.040;2023-04-09T03:59:36;102571.84;;;9.44;100.00
14089;BME280;7120;52.890;6.040;2023-04-09T04:02:01;102572.63;;;9.39;100.00
14089;BME280;7120;52.890;6.040;2023-04-09T04:04:27;102572.69;;;9.44;100.00
14089;BME280;7120;52.890;6.040;2023-04-09T04:06:52;102566.44;;;9.27;100.00
14089;BME280;7120;52.890;6.040;2023-04-09T04:09:17;102574.50;;;9.17;100.00
14089;BME280;7120;52.890;6.040;2023-04-09T04:11:43;102570.16;;;9.38;100.00
14089;BME280;7120;52.890;6.040;2023-04-09T04:14:08;102572.53;;;9.34;100.00
14089;BME280;7120;52.890;6.040;2023-04-09T04:16:33;102566.91;;;9.41;100.00
14089;BME280;7120;52.890;6.040;2023-04-09T04:18:59;102568.25;;;9.38;100.00
14089;BME280;7120;52.890;6.040;2023-04-09T04:21:24;102569.13;;;9.44;100.00
14089;BME280;7120;52.890;6.040;2023-04-09T04:23:51;102562.34;;;9.46;100.00
14089;BME280;7120;52.890;6.040;2023-04-09T04:26:16;102567.56;;;9.48;100.00
14089;BME280;7120;52.890;6.040;2023-04-09T04:28:42;102566.44;;;9.27;100.00
14089;BME280;7120;52.890;6.040;2023-04-09T04:31:08;102552.44;;;9.40;100.00
14089;BME280;7120;52.890;6.040;2023-04-09T04:33:34;102565.66;;;9.48;100.00
14089;BME280;7120;52.890;6.040;2023-04-09T04:36:10;102564.44;;;9.39;100.00
14089;BME280;7120;52.890;6.040;2023-04-09T04:38:37;102567.34;;;9.32;100.00
14089;BME280;7120;52.890;6.040;2023-04-09T04:41:02;102574.75;;;9.37;100.00
14089;BME280;7120;52.890;6.040;2023-04-09T04:43:28;102576.91;;;9.52;100.00
14089;BME280;7120;52.890;6.040;2023-04-09T04:45:54;102568.28;;;9.43;100.00
14089;BME280;7120;52.890;6.040;2023-04-09T04:48:20;102564.25;;;9.46;100.00
14089;BME280;7120;52.890;6.040;2023-04-09T04:50:45;102572.09;;;9.59;100.00
14089;BME280;7120;52.890;6.040;2023-04-09T04:53:11;102585.47;;;9.39;100.00
14089;BME280;7120;52.890;6.040;2023-04-09T04:55:36;102588.84;;;9.29;100.00
14089;BME280;7120;52.890;6.040;2023-04-09T04:58:04;102579.31;;;9.48;100.00
14089;BME280;7120;52.890;6.040;2023-04-09T05:00:30;102582.50;;;9.62;100.00
14089;BME280;7120;52.890;6.040;2023-04-09T05:02:55;102584.84;;;9.53;100.00
14089;BME280;7120;52.890;6.040;2023-04-09T05:05:20;102584.03;;;9.36;100.00
14089;BME280;7120;52.890;6.040;2023-04-09T05:07:46;102592.31;;;9.41;100.00
14089;BME280;7120;52.890;6.040;2023-04-09T05:10:11;102585.59;;;9.49;100.00
14089;BME280;7120;52.890;6.040;2023-04-09T05:12:36;102593.03;;;9.53;100.00
14089;BME280;7120;52.890;6.040;2023-04-09T05:15:02;102587.84;;;9.52;100.00
14089;BME280;7120;52.890;6.040;2023-04-09T05:17:27;102576.13;;;9.56;100.00
14089;BME280;7120;52.890;6.040;2023-04-09T05:19:53;102576.94;;;9.57;100.00
14089;BME280;7120;52.890;6.040;2023-04-09T05:22:19;102570.81;;;9.45;100.00
14089;BME280;7120;52.890;6.040;2023-04-09T05:24:44;102574.53;;;9.39;100.00
14089;BME280;7120;52.890;6.040;2023-04-09T05:27:10;102574.53;;;9.22;100.00
14089;BME280;7120;52.890;6.040;2023-04-09T05:29:35;102560.44;;;9.47;100.00
14089;BME280;7120;52.890;6.040;2023-04-09T05:32:01;102563.44;;;9.45;100.00
14089;BME280;7120;52.890;6.040;2023-04-09T05:34:26;102564.44;;;9.22;100.00
14089;BME280;7120;52.890;6.040;2023-04-09T05:36:52;102569.13;;;9.44;100.00
14089;BME280;7120;52.890;6.040;2023-04-09T05:39:18;102570.00;;;9.66;100.00
14089;BME280;7120;52.890;6.040;2023-04-09T05:41:43;102564.94;;;9.58;100.00
14089;BME280;7120;52.890;6.040;2023-04-09T05:44:11;102574.63;;;9.66;100.00
14089;BME280;7120;52.890;6.040;2023-04-09T05:46:36;102568.00;;;9.61;100.00
14089;BME280;7120;52.890;6.040;2023-04-09T05:49:01;102566.94;;;9.62;100.00
14089;BME280;7120;52.890;6.040;2023-04-09T05:51:27;102575.00;;;9.52;99.62
14089;BME280;7120;52.890;6.040;2023-04-09T05:53:52;102578.13;;;9.61;100.00
14089;BME280;7120;52.890;6.040;2023-04-09T05:56:18;102586.47;;;9.32;100.00
14089;BME280;7120;52.890;6.040;2023-04-09T05:58:43;102584.19;;;9.46;100.00
14089;BME280;7120;52.890;6.040;2023-04-09T06:01:09;102581.78;;;9.50;100.00
14089;BME280;7120;52.890;6.040;2023-04-09T06:03:34;102575.88;;;9.58;99.61
14089;BME280;7120;52.890;6.040;2023-04-09T06:06:00;102583.69;;;9.49;100.00
14089;BME280;7120;52.890;6.040;2023-04-09T06:08:25;102590.31;;;9.36;100.00
14089;BME280;7120;52.890;6.040;2023-04-09T06:10:51;102579.09;;;9.33;100.00
14089;BME280;7120;52.890;6.040;2023-04-09T06:13:16;102583.59;;;9.44;100.00
14089;BME280;7120;52.890;6.040;2023-04-09T06:15:41;102574.56;;;9.60;100.00
14089;BME280;7120;52.890;6.040;2023-04-09T06:18:07;102575.38;;;9.61;99.81
14089;BME280;7120;52.890;6.040;2023-04-09T06:20:32;102578.41;;;9.64;100.00
14089;BME280;7120;52.890;6.040;2023-04-09T06:22:57;102583.34;;;9.24;100.00
14089;BME280;7120;52.890;6.040;2023-04-09T06:25:23;102588.28;;;9.27;100.00
14089;BME280;7120;52.890;6.040;2023-04-09T06:27:48;102581.09;;;9.04;100.00
14089;BME280;7120;52.890;6.040;2023-04-09T06:30:13;102583.97;;;9.14;100.00
14089;BME280;7120;52.890;6.040;2023-04-09T06:32:39;102594.06;;;9.14;100.00
14089;BME280;7120;52.890;6.040;2023-04-09T06:35:05;102593.81;;;9.32;100.00
14089;BME280;7120;52.890;6.040;2023-04-09T06:37:32;102596.44;;;9.44;100.00
14089;BME280;7120;52.890;6.040;2023-04-09T06:39:58;102590.19;;;9.26;100.00
14089;BME280;7120;52.890;6.040;2023-04-09T06:42:23;102602.88;;;9.54;100.00
14089;BME280;7120;52.890;6.040;2023-04-09T06:44:49;102601.84;;;9.39;100.00
14089;BME280;7120;52.890;6.040;2023-04-09T06:47:14;102591.19;;;9.20;100.00
14089;BME280;7120;52.890;6.040;2023-04-09T06:49:40;102585.63;;;9.15;100.00
14089;BME280;7120;52.890;6.040;2023-04-09T06:52:05;102587.53;;;9.15;100.00
14089;BME280;7120;52.890;6.040;2023-04-09T06:54:31;102601.09;;;9.26;100.00
14089;BME280;7120;52.890;6.040;2023-04-09T06:56:57;102605.56;;;9.32;100.00
14089;BME280;7120;52.890;6.040;2023-04-09T06:59:22;102605.03;;;9.52;100.00
14089;BME280;7120;52.890;6.040;2023-04-09T07:01:47;102607.78;;;9.52;100.00
14089;BME280;7120;52.890;6.040;2023-04-09T07:04:13;102604.72;;;9.49;100.00
14089;BME280;7120;52.890;6.040;2023-04-09T07:06:38;102609.06;;;9.67;100.00
14089;BME280;7120;52.890;6.040;2023-04-09T07:09:05;102614.16;;;9.80;100.00
14089;BME280;7120;52.890;6.040;2023-04-09T07:11:30;102615.91;;;9.69;100.00
14089;BME280;7120;52.890;6.040;2023-04-09T07:13:56;102610.78;;;9.73;99.26
14089;BME280;7120;52.890;6.040;2023-04-09T07:16:22;102609.88;;;9.67;99.27
14089;BME280;7120;52.890;6.040;2023-04-09T07:18:48;102614.22;;;9.85;97.64
14089;BME280;7120;52.890;6.040;2023-04-09T07:21:13;102613.13;;;9.86;98.92
14089;BME280;7120;52.890;6.040;2023-04-09T07:23:38;102616.38;;;9.83;96.26
14089;BME280;7120;52.890;6.040;2023-04-09T07:26:04;102613.75;;;9.71;96.58
14089;BME280;7120;52.890;6.040;2023-04-09T07:28:31;102609.19;;;9.77;95.79
14089;BME280;7120;52.890;6.040;2023-04-09T07:30:58;102610.19;;;10.14;94.79
14089;BME280;7120;52.890;6.040;2023-04-09T07:33:25;102612.31;;;9.85;93.83
14089;BME280;7120;52.890;6.040;2023-04-09T07:35:50;102604.34;;;10.06;94.75
14089;BME280;7120;52.890;6.040;2023-04-09T07:38:16;102609.91;;;10.33;93.04
14089;BME280;7120;52.890;6.040;2023-04-09T07:40:41;102615.81;;;10.25;91.00
14089;BME280;7120;52.890;6.040;2023-04-09T07:43:07;102606.91;;;10.34;90.19
14089;BME280;7120;52.890;6.040;2023-04-09T07:45:32;102607.22;;;10.16;90.18
14089;BME280;7120;52.890;6.040;2023-04-09T07:47:58;102601.28;;;10.46;91.32
14089;BME280;7120;52.890;6.040;2023-04-09T07:50:23;102605.94;;;10.45;90.07
14089;BME280;7120;52.890;6.040;2023-04-09T07:52:48;102599.47;;;10.57;89.52
14089;BME280;7120;52.890;6.040;2023-04-09T07:55:14;102615.06;;;10.29;91.97
14089;BME280;7120;52.890;6.040;2023-04-09T07:57:39;102612.84;;;10.80;92.41
14089;BME280;7120;52.890;6.040;2023-04-09T08:00:05;102611.38;;;10.99;88.47
14089;BME280;7120;52.890;6.040;2023-04-09T08:02:31;102610.88;;;11.08;87.64
14089;BME280;7120;52.890;6.040;2023-04-09T08:04:56;102600.44;;;10.99;87.58
14089;BME280;7120;52.890;6.040;2023-04-09T08:07:23;102607.94;;;11.19;84.71
14089;BME280;7120;52.890;6.040;2023-04-09T08:09:48;102621.47;;;11.31;85.70
14089;BME280;7120;52.890;6.040;2023-04-09T08:12:13;102618.28;;;11.07;86.55
14089;BME280;7120;52.890;6.040;2023-04-09T08:14:39;102619.84;;;11.35;86.40
14089;BME280;7120;52.890;6.040;2023-04-09T08:17:05;102623.09;;;11.32;82.65
14089;BME280;7120;52.890;6.040;2023-04-09T08:19:30;102621.31;;;11.11;83.11
14089;BME280;7120;52.890;6.040;2023-04-09T08:21:56;102619.19;;;10.86;82.90
14089;BME280;7120;52.890;6.040;2023-04-09T08:24:22;102614.88;;;10.95;83.98
14089;BME280;7120;52.890;6.040;2023-04-09T08:26:48;102623.59;;;10.87;83.89
14089;BME280;7120;52.890;6.040;2023-04-09T08:29:13;102611.78;;;11.18;83.25
14089;BME280;7120;52.890;6.040;2023-04-09T08:31:39;102616.66;;;11.53;83.81
14089;BME280;7120;52.890;6.040;2023-04-09T08:34:05;102612.28;;;11.52;79.30
14089;BME280;7120;52.890;6.040;2023-04-09T08:36:30;102613.78;;;11.75;84.38
14089;BME280;7120;52.890;6.040;2023-04-09T08:38:57;102609.94;;;11.76;76.81
14089;BME280;7120;52.890;6.040;2023-04-09T08:41:25;102610.72;;;11.67;80.40
14089;BME280;7120;52.890;6.040;2023-04-09T08:43:53;102621.38;;;11.58;81.02
14089;BME280;7120;52.890;6.040;2023-04-09T08:46:19;102628.78;;;11.63;83.63
14089;BME280;7120;52.890;6.040;2023-04-09T08:48:48;102615.72;;;11.33;83.54
14089;BME280;7120;52.890;6.040;2023-04-09T08:51:19;102625.16;;;11.52;82.83
14089;BME280;7120;52.890;6.040;2023-04-09T08:53:53;102617.53;;;11.17;81.76
14089;BME280;7120;52.890;6.040;2023-04-09T08:56:20;102618.69;;;11.26;84.37
14089;BME280;7120;52.890;6.040;2023-04-09T08:58:46;102622.66;;;10.76;84.15
14089;BME280;7120;52.890;6.040;2023-04-09T09:01:25;102616.66;;;10.79;83.57
14089;BME280;7120;52.890;6.040;2023-04-09T09:04:02;102609.84;;;10.82;85.02
14089;BME280;7120;52.890;6.040;2023-04-09T09:06:40;102611.31;;;10.94;84.96
14089;BME280;7120;52.890;6.040;2023-04-09T09:09:16;102621.41;;;11.26;84.68
14089;BME280;7120;52.890;6.040;2023-04-09T09:11:46;102616.94;;;11.52;84.62
14089;BME280;7120;52.890;6.040;2023-04-09T09:14:14;102617.41;;;11.39;82.26
14089;BME280;7120;52.890;6.040;2023-04-09T09:16:42;102622.81;;;11.71;82.74
14089;BME280;7120;52.890;6.040;2023-04-09T09:19:30;102619.72;;;11.57;79.29
14089;BME280;7120;52.890;6.040;2023-04-09T09:21:56;102623.28;;;11.58;80.13
14089;BME280;7120;52.890;6.040;2023-04-09T09:24:22;102618.81;;;11.89;78.25
14089;BME280;7120;52.890;6.040;2023-04-09T09:26:47;102611.00;;;12.23;78.51
14089;BME280;7120;52.890;6.040;2023-04-09T09:29:13;102607.81;;;12.72;74.18
14089;BME280;7120;52.890;6.040;2023-04-09T09:31:49;102607.75;;;12.36;76.35
14089;BME280;7120;52.890;6.040;2023-04-09T09:34:15;102601.22;;;12.73;78.31
14089;BME280;7120;52.890;6.040;2023-04-09T09:36:44;102606.44;;;12.74;73.24
14089;BME280;7120;52.890;6.040;2023-04-09T09:39:11;102600.94;;;12.64;72.80
14089;BME280;7120;52.890;6.040;2023-04-09T09:41:40;102598.72;;;12.97;71.29
14089;BME280;7120;52.890;6.040;2023-04-09T09:44:07;102605.34;;;13.36;69.70
14089;BME280;7120;52.890;6.040;2023-04-09T09:46:35;102598.97;;;13.56;67.22
14089;BME280;7120;52.890;6.040;2023-04-09T09:49:01;102596.34;;;14.00;64.97
14089;BME280;7120;52.890;6.040;2023-04-09T09:51:27;102591.16;;;14.48;65.14
14089;BME280;7120;52.890;6.040;2023-04-09T09:53:55;102595.41;;;14.25;67.28
14089;BME280;7120;52.890;6.040;2023-04-09T09:56:23;102592.28;;;14.37;66.13
14089;BME280;7120;52.890;6.040;2023-04-09T09:59:08;102599.41;;;14.43;63.50
14089;BME280;7120;52.890;6.040;2023-04-09T10:01:36;102591.81;;;14.25;66.27
14089;BME280;7120;52.890;6.040;2023-04-09T10:04:04;102588.66;;;15.15;61.80
14089;BME280;7120;52.890;6.040;2023-04-09T10:06:32;102590.00;;;16.18;60.10
14089;BME280;7120;52.890;6.040;2023-04-09T10:09:00;102581.31;;;15.05;63.72
14089;BME280;7120;52.890;6.040;2023-04-09T10:11:28;102584.00;;;14.47;62.91
14089;BME280;7120;52.890;6.040;2023-04-09T10:13:56;102577.38;;;16.12;59.83
14089;BME280;7120;52.890;6.040;2023-04-09T10:16:25;102579.75;;;15.52;60.55
14089;BME280;7120;52.890;6.040;2023-04-09T10:18:54;102573.34;;;15.57;62.32
14089;BME280;7120;52.890;6.040;2023-04-09T10:21:44;102570.72;;;16.13;59.35
14089;BME280;7120;52.890;6.040;2023-04-09T10:24:13;102567.66;;;17.50;52.68
14089;BME280;7120;52.890;6.040;2023-04-09T10:26:41;102564.97;;;15.91;59.98
14089;BME280;7120;52.890;6.040;2023-04-09T10:29:09;102550.59;;;15.22;61.58
14089;BME280;7120;52.890;6.040;2023-04-09T10:31:50;102548.84;;;15.31;59.87
14089;BME280;7120;52.890;6.040;2023-04-09T10:34:16;102554.09;;;17.21;56.16
14089;BME280;7120;52.890;6.040;2023-04-09T10:36:44;102552.09;;;16.94;56.33
14089;BME280;7120;52.890;6.040;2023-04-09T10:39:11;102548.69;;;18.57;53.16
14089;BME280;7120;52.890;6.040;2023-04-09T10:41:38;102540.47;;;18.66;53.16
14089;BME280;7120;52.890;6.040;2023-04-09T10:44:18;102537.59;;;17.99;52.83
14089;BME280;7120;52.890;6.040;2023-04-09T10:46:46;102533.38;;;18.60;52.35
14089;BME280;7120;52.890;6.040;2023-04-09T10:52:09;102540.72;;;17.42;56.83
14089;BME280;7120;52.890;6.040;2023-04-09T10:54:41;102533.97;;;18.48;53.57
14089;BME280;7120;52.890;6.040;2023-04-09T10:59:41;102528.81;;;18.78;54.79
14089;BME280;7120;52.890;6.040;2023-04-09T11:02:09;102528.16;;;19.52;50.96
14089;BME280;7120;52.890;6.040;2023-04-09T11:05:05;102537.47;;;19.95;48.30
14089;BME280;7120;52.890;6.040;2023-04-09T11:07:40;102520.19;;;20.24;45.93
14089;BME280;7120;52.890;6.040;2023-04-09T11:10:08;102525.03;;;19.44;51.33
14089;BME280;7120;52.890;6.040;2023-04-09T11:12:33;102515.38;;;18.93;47.52
14089;BME280;7120;52.890;6.040;2023-04-09T11:14:58;102502.59;;;18.39;51.82
14089;BME280;7120;52.890;6.040;2023-04-09T11:17:24;102505.47;;;19.49;48.70
14089;BME280;7120;52.890;6.040;2023-04-09T11:19:50;102500.44;;;18.81;47.31
14089;BME280;7120;52.890;6.040;2023-04-09T11:22:15;102504.28;;;16.94;55.83
14089;BME280;7120;52.890;6.040;2023-04-09T11:24:42;102499.97;;;18.34;52.67
14089;BME280;7120;52.890;6.040;2023-04-09T11:27:07;102494.47;;;18.20;49.63
14089;BME280;7120;52.890;6.040;2023-04-09T11:29:36;102496.94;;;18.44;51.81
14089;BME280;7120;52.890;6.040;2023-04-09T11:32:01;102485.03;;;18.21;49.52
14089;BME280;7120;52.890;6.040;2023-04-09T11:34:29;102466.88;;;19.79;46.40
14089;BME280;7120;52.890;6.040;2023-04-09T11:36:55;102475.78;;;19.50;50.41
14089;BME280;7120;52.890;6.040;2023-04-09T11:39:21;102480.84;;;19.48;46.79
14089;BME280;7120;52.890;6.040;2023-04-09T11:41:46;102475.19;;;19.13;47.15
14089;BME280;7120;52.890;6.040;2023-04-09T11:44:12;102478.19;;;18.94;49.04
14089;BME280;7120;52.890;6.040;2023-04-09T11:46:38;102467.59;;;18.21;52.18
14089;BME280;7120;52.890;6.040;2023-04-09T11:49:04;102476.69;;;17.99;52.83
14089;BME280;7120;52.890;6.040;2023-04-09T11:51:30;102466.84;;;17.43;55.52
14089;BME280;7120;52.890;6.040;2023-04-09T11:54:04;102460.34;;;17.47;51.79
14089;BME280;7120;52.890;6.040;2023-04-09T11:56:30;102461.19;;;18.11;49.08
14089;BME280;7120;52.890;6.040;2023-04-09T11:58:55;102454.97;;;17.42;51.39
14089;BME280;7120;52.890;6.040;2023-04-09T12:01:21;102451.09;;;19.31;49.94
14089;BME280;7120;52.890;6.040;2023-04-09T12:03:54;102457.41;;;18.75;51.96
14089;BME280;7120;52.890;6.040;2023-04-09T12:06:20;102457.50;;;19.01;51.17
14089;BME280;7120;52.890;6.040;2023-04-09T12:08:56;102453.13;;;18.69;45.55
14089;BME280;7120;52.890;6.040;2023-04-09T12:11:29;102461.56;;;17.82;50.68
14089;BME280;7120;52.890;6.040;2023-04-09T12:14:02;102464.91;;;17.29;51.20
14089;BME280;7120;52.890;6.040;2023-04-09T12:16:32;102461.06;;;17.67;49.42
14089;BME280;7120;52.890;6.040;2023-04-09T12:19:02;102451.16;;;17.11;51.43
14089;BME280;7120;52.890;6.040;2023-04-09T12:21:51;102455.75;;;17.56;49.94
14089;BME280;7120;52.890;6.040;2023-04-09T12:24:19;102450.78;;;18.62;48.71
14089;BME280;7120;52.890;6.040;2023-04-09T12:26:46;102461.28;;;19.53;53.59
14089;BME280;7120;52.890;6.040;2023-04-09T12:29:17;102455.28;;;19.11;45.02
14089;BME280;7120;52.890;6.040;2023-04-09T12:31:43;102460.59;;;19.56;49.83
14089;BME280;7120;52.890;6.040;2023-04-09T12:34:09;102454.22;;;19.38;47.43
14089;BME280;7120;52.890;6.040;2023-04-09T12:36:34;102453.69;;;18.88;49.20
14089;BME280;7120;52.890;6.040;2023-04-09T12:38:59;102454.13;;;17.55;48.45
14089;BME280;7120;52.890;6.040;2023-04-09T12:41:25;102452.28;;;17.10;52.59
14089;BME280;7120;52.890;6.040;2023-04-09T12:43:50;102453.03;;;17.93;51.91
14089;BME280;7120;52.890;6.040;2023-04-09T12:46:19;102441.66;;;19.41;46.48
14089;BME280;7120;52.890;6.040;2023-04-09T12:48:45;102436.69;;;18.81;45.45
14089;BME280;7120;52.890;6.040;2023-04-09T12:51:11;102440.72;;;20.49;45.77
14089;BME280;7120;52.890;6.040;2023-04-09T12:53:37;102432.38;;;20.41;42.66
14089;BME280;7120;52.890;6.040;2023-04-09T12:56:02;102429.25;;;20.98;43.77
14089;BME280;7120;52.890;6.040;2023-04-09T12:58:28;102427.81;;;20.27;43.90
14089;BME280;7120;52.890;6.040;2023-04-09T13:00:53;102424.88;;;21.26;42.63
14089;BME280;7120;52.890;6.040;2023-04-09T13:03:21;102425.34;;;22.00;44.23
14089;BME280;7120;52.890;6.040;2023-04-09T13:05:47;102422.47;;;22.29;38.52
14089;BME280;7120;52.890;6.040;2023-04-09T13:08:12;102425.66;;;21.56;40.47
14089;BME280;7120;52.890;6.040;2023-04-09T13:10:38;102436.47;;;20.35;41.99
14089;BME280;7120;52.890;6.040;2023-04-09T13:13:03;102425.06;;;19.67;45.76